sensor_id;sensor_type;location;lat;lon;timestamp;P1;durP1;ratioP1;P2;durP2;ratioP2
13520;SDS011;6832;51.186;3.236;2022-07-23T00:00:27;6.20;;;3.37;;
13520;SDS011;6832;51.186;3.236;2022-07-23T00:02:54;10.03;;;4.53;;
13520;SDS011;6832;51.186;3.236;2022-07-23T00:05:22;8.03;;;3.77;;
13520;SDS011;6832;51.186;3.236;2022-07-23T00:07:49;8.43;;;4.23;;
13520;SDS011;6832;51.186;3.236;2022-07-23T00:10:16;9.23;;;4.30;;
13520;SDS011;6832;51.186;3.236;2022-07-23T00:12:46;8.27;;;4.00;;
13520;SDS011;6832;51.186;3.236;2022-07-23T00:15:14;10.37;;;4.07;;
13520;SDS011;6832;51.186;3.236;2022-07-23T00:17:48;8.30;;;3.70;;
13520;SDS011;6832;51.186;3.236;2022-07-23T00:20:15;10.43;;;3.87;;
13520;SDS011;6832;51.186;3.236;2022-07-23T00:22:48;8.07;;;3.63;;
13520;SDS011;6832;51.186;3.236;2022-07-23T00:25:15;11.33;;;4.83;;
13520;SDS011;6832;51.186;3.236;2022-07-23T00:27:43;12.80;;;5.27;;
13520;SDS011;6832;51.186;3.236;2022-07-23T00:30:10;8.80;;;3.87;;
13520;SDS011;6832;51.186;3.236;2022-07-23T00:32:45;11.00;;;4.63;;
13520;SDS011;6832;51.186;3.236;2022-07-23T00:35:16;4.53;;;2.70;;
13520;SDS011;6832;51.186;3.236;2022-07-23T00:37:46;8.53;;;3.93;;
13520;SDS011;6832;51.186;3.236;2022-07-23T00:40:14;14.47;;;5.70;;
13520;SDS011;6832;51.186;3.236;2022-07-23T00:42:43;5.97;;;3.70;;
13520;SDS011;6832;51.186;3.236;2022-07-23T00:45:10;7.43;;;3.80;;
13520;SDS011;6832;51.186;3.236;2022-07-23T00:47:39;10.73;;;4.20;;
13520;SDS011;6832;51.186;3.236;2022-07-23T00:50:08;11.13;;;4.63;;
13520;SDS011;6832;51.186;3.236;2022-07-23T00:52:37;8.47;;;4.33;;
13520;SDS011;6832;51.186;3.236;2022-07-23T00:55:05;9.27;;;4.43;;
13520;SDS011;6832;51.186;3.236;2022-07-23T00:57:34;7.93;;;3.90;;
13520;SDS011;6832;51.186;3.236;2022-07-23T01:00:06;9.63;;;4.40;;
13520;SDS011;6832;51.186;3.236;2022-07-23T01:02:35;11.87;;;5.33;;
13520;SDS011;6832;51.186;3.236;2022-07-23T01:05:06;11.43;;;4.80;;
13520;SDS011;6832;51.186;3.236;2022-07-23T01:07:37;10.07;;;4.53;;
13520;SDS011;6832;51.186;3.236;2022-07-23T01:10:05;15.27;;;5.73;;
13520;SDS011;6832;51.186;3.236;2022-07-23T01:12:46;9.43;;;4.23;;
13520;SDS011;6832;51.186;3.236;2022-07-23T01:15:13;10.73;;;4.50;;
13520;SDS011;6832;51.186;3.236;2022-07-23T01:17:40;12.67;;;5.63;;
13520;SDS011;6832;51.186;3.236;2022-07-23T01:20:10;9.00;;;4.47;;
13520;SDS011;6832;51.186;3.236;2022-07-23T01:22:41;7.33;;;4.03;;
13520;SDS011;6832;51.186;3.236;2022-07-23T01:25:10;10.93;;;4.47;;
13520;SDS011;6832;51.186;3.236;2022-07-23T01:27:37;8.87;;;4.43;;
13520;SDS011;6832;51.186;3.236;2022-07-23T01:30:05;8.80;;;4.37;;
13520;SDS011;6832;51.186;3.236;2022-07-23T01:32:34;7.30;;;3.80;;
13520;SDS011;6832;51.186;3.236;2022-07-23T01:35:01;8.73;;;4.67;;
13520;SDS011;6832;51.186;3.236;2022-07-23T01:37:28;9.33;;;5.07;;
13520;SDS011;6832;51.186;3.236;2022-07-23T01:42:30;8.40;;;4.57;;
13520;SDS011;6832;51.186;3.236;2022-07-23T01:45:01;7.63;;;4.63;;
13520;SDS011;6832;51.186;3.236;2022-07-23T01:47:31;12.20;;;5.77;;
13520;SDS011;6832;51.186;3.236;2022-07-23T01:50:02;9.97;;;5.23;;
13520;SDS011;6832;51.186;3.236;2022-07-23T01:52:31;12.67;;;6.47;;
13520;SDS011;6832;51.186;3.236;2022-07-23T01:55:01;10.73;;;4.93;;
13520;SDS011;6832;51.186;3.236;2022-07-23T01:57:29;11.07;;;5.47;;
13520;SDS011;6832;51.186;3.236;2022-07-23T01:59:56;7.40;;;4.93;;
13520;SDS011;6832;51.186;3.236;2022-07-23T02:02:23;8.43;;;4.57;;
13520;SDS011;6832;51.186;3.236;2022-07-23T02:04:50;11.10;;;5.50;;
13520;SDS011;6832;51.186;3.236;2022-07-23T02:07:18;8.97;;;4.90;;
13520;SDS011;6832;51.186;3.236;2022-07-23T02:09:45;6.43;;;4.33;;
13520;SDS011;6832;51.186;3.236;2022-07-23T02:12:16;11.33;;;5.77;;
13520;SDS011;6832;51.186;3.236;2022-07-23T02:14:44;11.43;;;5.30;;
13520;SDS011;6832;51.186;3.236;2022-07-23T02:17:11;11.30;;;5.80;;
13520;SDS011;6832;51.186;3.236;2022-07-23T02:19:40;8.70;;;4.97;;
13520;SDS011;6832;51.186;3.236;2022-07-23T02:22:07;10.80;;;5.97;;
13520;SDS011;6832;51.186;3.236;2022-07-23T02:24:35;7.97;;;4.60;;
13520;SDS011;6832;51.186;3.236;2022-07-23T02:27:05;11.10;;;5.67;;
13520;SDS011;6832;51.186;3.236;2022-07-23T02:29:33;10.20;;;4.97;;
13520;SDS011;6832;51.186;3.236;2022-07-23T02:32:01;8.80;;;4.90;;
13520;SDS011;6832;51.186;3.236;2022-07-23T02:34:29;7.47;;;4.83;;
13520;SDS011;6832;51.186;3.236;2022-07-23T02:36:56;6.80;;;4.27;;
13520;SDS011;6832;51.186;3.236;2022-07-23T02:39:24;7.20;;;4.20;;
13520;SDS011;6832;51.186;3.236;2022-07-23T02:41:54;8.23;;;5.00;;
13520;SDS011;6832;51.186;3.236;2022-07-23T02:44:21;9.33;;;5.10;;
13520;SDS011;6832;51.186;3.236;2022-07-23T02:46:50;12.83;;;5.67;;
13520;SDS011;6832;51.186;3.236;2022-07-23T02:49:20;12.60;;;5.20;;
13520;SDS011;6832;51.186;3.236;2022-07-23T02:51:48;8.40;;;4.57;;
13520;SDS011;6832;51.186;3.236;2022-07-23T02:54:17;8.53;;;4.90;;
13520;SDS011;6832;51.186;3.236;2022-07-23T02:56:48;6.43;;;4.83;;
13520;SDS011;6832;51.186;3.236;2022-07-23T02:59:22;8.07;;;4.20;;
13520;SDS011;6832;51.186;3.236;2022-07-23T03:01:53;10.33;;;5.40;;
13520;SDS011;6832;51.186;3.236;2022-07-23T03:04:23;8.40;;;5.40;;
13520;SDS011;6832;51.186;3.236;2022-07-23T03:06:57;10.50;;;5.43;;
13520;SDS011;6832;51.186;3.236;2022-07-23T03:09:25;7.23;;;4.30;;
13520;SDS011;6832;51.186;3.236;2022-07-23T03:11:52;8.90;;;5.67;;
13520;SDS011;6832;51.186;3.236;2022-07-23T03:14:19;8.60;;;5.50;;
13520;SDS011;6832;51.186;3.236;2022-07-23T03:16:47;10.10;;;6.00;;
13520;SDS011;6832;51.186;3.236;2022-07-23T03:19:16;12.30;;;7.07;;
13520;SDS011;6832;51.186;3.236;2022-07-23T03:21:44;10.73;;;6.87;;
13520;SDS011;6832;51.186;3.236;2022-07-23T03:24:11;11.37;;;6.87;;
13520;SDS011;6832;51.186;3.236;2022-07-23T03:26:39;9.87;;;5.97;;
13520;SDS011;6832;51.186;3.236;2022-07-23T03:29:07;7.43;;;5.70;;
13520;SDS011;6832;51.186;3.236;2022-07-23T03:31:36;9.20;;;5.60;;
13520;SDS011;6832;51.186;3.236;2022-07-23T03:34:04;8.80;;;6.07;;
13520;SDS011;6832;51.186;3.236;2022-07-23T03:36:32;11.97;;;7.10;;
13520;SDS011;6832;51.186;3.236;2022-07-23T03:38:59;11.50;;;6.73;;
13520;SDS011;6832;51.186;3.236;2022-07-23T03:41:28;10.53;;;6.70;;
13520;SDS011;6832;51.186;3.236;2022-07-23T03:43:58;11.03;;;6.47;;
13520;SDS011;6832;51.186;3.236;2022-07-23T03:46:30;12.57;;;6.83;;
13520;SDS011;6832;51.186;3.236;2022-07-23T03:48:59;9.13;;;5.93;;
13520;SDS011;6832;51.186;3.236;2022-07-23T03:51:27;6.77;;;5.23;;
13520;SDS011;6832;51.186;3.236;2022-07-23T03:53:56;13.50;;;6.93;;
13520;SDS011;6832;51.186;3.236;2022-07-23T03:56:23;12.83;;;7.37;;
13520;SDS011;6832;51.186;3.236;2022-07-23T03:58:51;10.97;;;6.83;;
13520;SDS011;6832;51.186;3.236;2022-07-23T04:01:20;11.00;;;6.50;;
13520;SDS011;6832;51.186;3.236;2022-07-23T04:03:47;10.73;;;6.13;;
13520;SDS011;6832;51.186;3.236;2022-07-23T04:06:14;10.33;;;6.70;;
13520;SDS011;6832;51.186;3.236;2022-07-23T04:08:41;13.03;;;7.47;;
13520;SDS011;6832;51.186;3.236;2022-07-23T04:11:12;11.23;;;6.73;;
13520;SDS011;6832;51.186;3.236;2022-07-23T04:13:39;12.27;;;7.07;;
13520;SDS011;6832;51.186;3.236;2022-07-23T04:16:06;10.57;;;7.03;;
13520;SDS011;6832;51.186;3.236;2022-07-23T04:18:33;9.83;;;6.73;;
13520;SDS011;6832;51.186;3.236;2022-07-23T04:21:01;13.00;;;7.67;;
13520;SDS011;6832;51.186;3.236;2022-07-23T04:23:33;13.97;;;7.67;;
13520;SDS011;6832;51.186;3.236;2022-07-23T04:26:01;13.27;;;7.07;;
13520;SDS011;6832;51.186;3.236;2022-07-23T04:28:30;12.57;;;7.13;;
13520;SDS011;6832;51.186;3.236;2022-07-23T04:30:57;10.43;;;6.70;;
13520;SDS011;6832;51.186;3.236;2022-07-23T04:33:26;10.13;;;6.97;;
13520;SDS011;6832;51.186;3.236;2022-07-23T04:35:55;10.93;;;6.90;;
13520;SDS011;6832;51.186;3.236;2022-07-23T04:38:22;9.23;;;5.77;;
13520;SDS011;6832;51.186;3.236;2022-07-23T04:40:49;14.40;;;7.60;;
13520;SDS011;6832;51.186;3.236;2022-07-23T04:43:16;15.87;;;8.90;;
13520;SDS011;6832;51.186;3.236;2022-07-23T04:45:45;13.97;;;7.63;;
13520;SDS011;6832;51.186;3.236;2022-07-23T04:48:22;12.83;;;7.57;;
13520;SDS011;6832;51.186;3.236;2022-07-23T04:50:49;14.83;;;8.03;;
13520;SDS011;6832;51.186;3.236;2022-07-23T04:53:16;15.27;;;8.63;;
13520;SDS011;6832;51.186;3.236;2022-07-23T04:55:46;12.17;;;7.63;;
13520;SDS011;6832;51.186;3.236;2022-07-23T04:58:14;17.17;;;8.80;;
13520;SDS011;6832;51.186;3.236;2022-07-23T05:00:41;19.37;;;9.70;;
13520;SDS011;6832;51.186;3.236;2022-07-23T05:03:09;10.57;;;6.97;;
13520;SDS011;6832;51.186;3.236;2022-07-23T05:05:36;15.77;;;8.13;;
13520;SDS011;6832;51.186;3.236;2022-07-23T05:08:04;15.73;;;9.33;;
13520;SDS011;6832;51.186;3.236;2022-07-23T05:10:32;13.10;;;8.50;;
13520;SDS011;6832;51.186;3.236;2022-07-23T05:12:59;19.07;;;9.30;;
13520;SDS011;6832;51.186;3.236;2022-07-23T05:15:26;10.93;;;7.33;;
13520;SDS011;6832;51.186;3.236;2022-07-23T05:17:53;17.57;;;8.83;;
13520;SDS011;6832;51.186;3.236;2022-07-23T05:20:24;16.70;;;9.17;;
13520;SDS011;6832;51.186;3.236;2022-07-23T05:22:53;10.97;;;7.67;;
13520;SDS011;6832;51.186;3.236;2022-07-23T05:25:20;15.73;;;8.70;;
13520;SDS011;6832;51.186;3.236;2022-07-23T05:27:48;15.23;;;9.17;;
13520;SDS011;6832;51.186;3.236;2022-07-23T05:30:17;14.23;;;8.53;;
13520;SDS011;6832;51.186;3.236;2022-07-23T05:32:45;15.57;;;9.10;;
13520;SDS011;6832;51.186;3.236;2022-07-23T05:35:18;16.10;;;9.57;;
13520;SDS011;6832;51.186;3.236;2022-07-23T05:37:47;15.33;;;9.77;;
13520;SDS011;6832;51.186;3.236;2022-07-23T05:40:14;17.87;;;9.40;;
13520;SDS011;6832;51.186;3.236;2022-07-23T05:42:41;11.53;;;7.63;;
13520;SDS011;6832;51.186;3.236;2022-07-23T05:45:08;10.13;;;7.80;;
13520;SDS011;6832;51.186;3.236;2022-07-23T05:47:40;13.60;;;8.77;;
13520;SDS011;6832;51.186;3.236;2022-07-23T05:50:09;12.97;;;9.03;;
13520;SDS011;6832;51.186;3.236;2022-07-23T05:52:37;12.73;;;8.50;;
13520;SDS011;6832;51.186;3.236;2022-07-23T05:55:10;12.60;;;8.17;;
13520;SDS011;6832;51.186;3.236;2022-07-23T05:57:43;14.00;;;8.67;;
13520;SDS011;6832;51.186;3.236;2022-07-23T06:00:10;11.37;;;7.90;;
13520;SDS011;6832;51.186;3.236;2022-07-23T06:02:44;15.83;;;8.97;;
13520;SDS011;6832;51.186;3.236;2022-07-23T06:05:13;11.93;;;7.93;;
13520;SDS011;6832;51.186;3.236;2022-07-23T06:07:40;13.60;;;8.07;;
13520;SDS011;6832;51.186;3.236;2022-07-23T06:10:09;11.17;;;7.73;;
13520;SDS011;6832;51.186;3.236;2022-07-23T06:12:37;12.03;;;8.40;;
13520;SDS011;6832;51.186;3.236;2022-07-23T06:15:05;15.23;;;9.47;;
13520;SDS011;6832;51.186;3.236;2022-07-23T06:17:33;12.33;;;8.17;;
13520;SDS011;6832;51.186;3.236;2022-07-23T06:20:03;20.00;;;10.57;;
13520;SDS011;6832;51.186;3.236;2022-07-23T06:22:36;12.07;;;8.43;;
13520;SDS011;6832;51.186;3.236;2022-07-23T06:25:14;16.07;;;9.57;;
13520;SDS011;6832;51.186;3.236;2022-07-23T06:27:41;13.60;;;9.30;;
13520;SDS011;6832;51.186;3.236;2022-07-23T06:30:09;14.60;;;8.97;;
13520;SDS011;6832;51.186;3.236;2022-07-23T06:32:37;17.50;;;9.03;;
13520;SDS011;6832;51.186;3.236;2022-07-23T06:35:05;13.83;;;8.63;;
13520;SDS011;6832;51.186;3.236;2022-07-23T06:37:33;13.97;;;8.33;;
13520;SDS011;6832;51.186;3.236;2022-07-23T06:40:00;13.10;;;9.10;;
13520;SDS011;6832;51.186;3.236;2022-07-23T06:42:31;20.30;;;11.03;;
13520;SDS011;6832;51.186;3.236;2022-07-23T06:45:02;16.13;;;9.07;;
13520;SDS011;6832;51.186;3.236;2022-07-23T06:47:29;21.60;;;9.90;;
13520;SDS011;6832;51.186;3.236;2022-07-23T06:49:56;17.50;;;9.13;;
13520;SDS011;6832;51.186;3.236;2022-07-23T06:52:25;18.10;;;10.77;;
13520;SDS011;6832;51.186;3.236;2022-07-23T06:54:52;15.37;;;10.43;;
13520;SDS011;6832;51.186;3.236;2022-07-23T06:57:19;18.93;;;10.57;;
13520;SDS011;6832;51.186;3.236;2022-07-23T06:59:48;18.77;;;10.00;;
13520;SDS011;6832;51.186;3.236;2022-07-23T07:02:15;14.30;;;9.37;;
13520;SDS011;6832;51.186;3.236;2022-07-23T07:04:42;17.93;;;11.00;;
13520;SDS011;6832;51.186;3.236;2022-07-23T07:07:11;23.40;;;11.83;;
13520;SDS011;6832;51.186;3.236;2022-07-23T07:09:39;12.17;;;8.20;;
13520;SDS011;6832;51.186;3.236;2022-07-23T07:12:06;17.20;;;10.13;;
13520;SDS011;6832;51.186;3.236;2022-07-23T07:14:35;17.93;;;9.37;;
13520;SDS011;6832;51.186;3.236;2022-07-23T07:17:03;17.27;;;10.60;;
13520;SDS011;6832;51.186;3.236;2022-07-23T07:19:30;15.10;;;8.93;;
13520;SDS011;6832;51.186;3.236;2022-07-23T07:22:01;14.30;;;8.83;;
13520;SDS011;6832;51.186;3.236;2022-07-23T07:24:32;15.37;;;9.20;;
13520;SDS011;6832;51.186;3.236;2022-07-23T07:26:59;18.50;;;10.37;;
13520;SDS011;6832;51.186;3.236;2022-07-23T07:29:26;14.33;;;9.07;;
13520;SDS011;6832;51.186;3.236;2022-07-23T07:31:56;15.30;;;8.57;;
13520;SDS011;6832;51.186;3.236;2022-07-23T07:34:34;15.63;;;8.37;;
13520;SDS011;6832;51.186;3.236;2022-07-23T07:37:02;14.43;;;8.73;;
13520;SDS011;6832;51.186;3.236;2022-07-23T07:39:32;12.43;;;8.07;;
13520;SDS011;6832;51.186;3.236;2022-07-23T07:41:59;15.63;;;8.30;;
13520;SDS011;6832;51.186;3.236;2022-07-23T07:44:27;13.07;;;9.00;;
13520;SDS011;6832;51.186;3.236;2022-07-23T07:46:55;13.07;;;8.67;;
13520;SDS011;6832;51.186;3.236;2022-07-23T07:49:26;11.53;;;8.20;;
13520;SDS011;6832;51.186;3.236;2022-07-23T07:51:53;11.40;;;7.63;;
13520;SDS011;6832;51.186;3.236;2022-07-23T07:54:20;14.30;;;8.40;;
13520;SDS011;6832;51.186;3.236;2022-07-23T07:56:48;15.17;;;8.50;;
13520;SDS011;6832;51.186;3.236;2022-07-23T07:59:16;15.13;;;8.93;;
13520;SDS011;6832;51.186;3.236;2022-07-23T08:01:44;12.80;;;8.77;;
13520;SDS011;6832;51.186;3.236;2022-07-23T08:04:12;15.10;;;8.97;;
13520;SDS011;6832;51.186;3.236;2022-07-23T08:06:40;18.23;;;9.90;;
13520;SDS011;6832;51.186;3.236;2022-07-23T08:09:07;10.47;;;7.63;;
13520;SDS011;6832;51.186;3.236;2022-07-23T08:11:34;11.70;;;7.43;;
13520;SDS011;6832;51.186;3.236;2022-07-23T08:14:01;15.87;;;9.43;;
13520;SDS011;6832;51.186;3.236;2022-07-23T08:16:29;12.83;;;8.17;;
13520;SDS011;6832;51.186;3.236;2022-07-23T08:18:56;17.20;;;9.57;;
13520;SDS011;6832;51.186;3.236;2022-07-23T08:21:23;11.77;;;8.67;;
13520;SDS011;6832;51.186;3.236;2022-07-23T08:23:53;16.27;;;9.23;;
13520;SDS011;6832;51.186;3.236;2022-07-23T08:26:20;10.43;;;8.03;;
13520;SDS011;6832;51.186;3.236;2022-07-23T08:28:48;14.83;;;9.90;;
13520;SDS011;6832;51.186;3.236;2022-07-23T08:31:15;15.83;;;9.83;;
13520;SDS011;6832;51.186;3.236;2022-07-23T08:33:43;13.83;;;8.60;;
13520;SDS011;6832;51.186;3.236;2022-07-23T08:36:12;15.80;;;9.13;;
13520;SDS011;6832;51.186;3.236;2022-07-23T08:38:39;13.30;;;8.37;;
13520;SDS011;6832;51.186;3.236;2022-07-23T08:41:07;15.50;;;10.20;;
13520;SDS011;6832;51.186;3.236;2022-07-23T08:43:38;14.33;;;9.03;;
13520;SDS011;6832;51.186;3.236;2022-07-23T08:46:08;16.13;;;8.87;;
13520;SDS011;6832;51.186;3.236;2022-07-23T08:48:37;12.77;;;8.20;;
13520;SDS011;6832;51.186;3.236;2022-07-23T08:51:05;15.63;;;10.07;;
13520;SDS011;6832;51.186;3.236;2022-07-23T08:53:38;11.27;;;7.93;;
13520;SDS011;6832;51.186;3.236;2022-07-23T08:56:13;14.03;;;8.17;;
13520;SDS011;6832;51.186;3.236;2022-07-23T08:58:41;17.47;;;9.47;;
13520;SDS011;6832;51.186;3.236;2022-07-23T09:01:08;14.23;;;9.43;;
13520;SDS011;6832;51.186;3.236;2022-07-23T09:03:37;14.47;;;8.90;;
13520;SDS011;6832;51.186;3.236;2022-07-23T09:06:05;11.00;;;8.03;;
13520;SDS011;6832;51.186;3.236;2022-07-23T09:08:36;15.40;;;8.97;;
13520;SDS011;6832;51.186;3.236;2022-07-23T09:11:07;11.77;;;8.40;;
13520;SDS011;6832;51.186;3.236;2022-07-23T09:13:38;11.10;;;8.60;;
13520;SDS011;6832;51.186;3.236;2022-07-23T09:16:08;12.97;;;8.10;;
13520;SDS011;6832;51.186;3.236;2022-07-23T09:18:39;14.23;;;7.90;;
13520;SDS011;6832;51.186;3.236;2022-07-23T09:21:12;11.90;;;8.33;;
13520;SDS011;6832;51.186;3.236;2022-07-23T09:23:44;19.50;;;9.63;;
13520;SDS011;6832;51.186;3.236;2022-07-23T09:26:30;13.47;;;9.07;;
13520;SDS011;6832;51.186;3.236;2022-07-23T09:29:00;14.17;;;9.07;;
13520;SDS011;6832;51.186;3.236;2022-07-23T09:31:34;15.77;;;8.80;;
13520;SDS011;6832;51.186;3.236;2022-07-23T09:34:18;9.93;;;7.93;;
13520;SDS011;6832;51.186;3.236;2022-07-23T09:36:49;11.10;;;7.47;;
13520;SDS011;6832;51.186;3.236;2022-07-23T09:39:23;12.10;;;8.47;;
13520;SDS011;6832;51.186;3.236;2022-07-23T09:41:54;11.10;;;8.27;;
13520;SDS011;6832;51.186;3.236;2022-07-23T09:44:21;8.93;;;6.70;;
13520;SDS011;6832;51.186;3.236;2022-07-23T09:46:49;14.53;;;7.30;;
13520;SDS011;6832;51.186;3.236;2022-07-23T09:49:25;11.27;;;6.47;;
13520;SDS011;6832;51.186;3.236;2022-07-23T09:51:54;9.50;;;6.27;;
13520;SDS011;6832;51.186;3.236;2022-07-23T09:54:24;9.67;;;6.57;;
13520;SDS011;6832;51.186;3.236;2022-07-23T09:57:02;10.50;;;7.23;;
13520;SDS011;6832;51.186;3.236;2022-07-23T09:59:34;12.47;;;8.60;;
13520;SDS011;6832;51.186;3.236;2022-07-23T10:02:06;11.43;;;6.67;;
13520;SDS011;6832;51.186;3.236;2022-07-23T10:04:37;12.50;;;7.87;;
13520;SDS011;6832;51.186;3.236;2022-07-23T10:07:06;9.63;;;8.17;;
13520;SDS011;6832;51.186;3.236;2022-07-23T10:09:43;12.77;;;8.67;;
13520;SDS011;6832;51.186;3.236;2022-07-23T10:12:15;10.57;;;6.93;;
13520;SDS011;6832;51.186;3.236;2022-07-23T10:14:49;14.47;;;7.70;;
13520;SDS011;6832;51.186;3.236;2022-07-23T10:17:17;8.00;;;6.80;;
13520;SDS011;6832;51.186;3.236;2022-07-23T10:19:45;10.37;;;6.77;;
13520;SDS011;6832;51.186;3.236;2022-07-23T10:22:13;10.23;;;6.70;;
13520;SDS011;6832;51.186;3.236;2022-07-23T10:25:08;12.13;;;7.87;;
13520;SDS011;6832;51.186;3.236;2022-07-23T10:27:53;11.07;;;7.80;;
13520;SDS011;6832;51.186;3.236;2022-07-23T10:30:35;11.87;;;6.90;;
13520;SDS011;6832;51.186;3.236;2022-07-23T10:33:14;11.33;;;7.23;;
13520;SDS011;6832;51.186;3.236;2022-07-23T10:35:53;12.73;;;7.83;;
13520;SDS011;6832;51.186;3.236;2022-07-23T10:38:27;11.97;;;7.70;;
13520;SDS011;6832;51.186;3.236;2022-07-23T10:40:59;12.03;;;8.33;;
13520;SDS011;6832;51.186;3.236;2022-07-23T10:43:30;9.97;;;7.60;;
13520;SDS011;6832;51.186;3.236;2022-07-23T10:46:21;11.00;;;7.80;;
13520;SDS011;6832;51.186;3.236;2022-07-23T10:54:46;13.43;;;8.53;;
13520;SDS011;6832;51.186;3.236;2022-07-23T10:57:16;9.87;;;7.40;;
13520;SDS011;6832;51.186;3.236;2022-07-23T11:03:04;11.47;;;8.63;;
13520;SDS011;6832;51.186;3.236;2022-07-23T11:05:53;14.83;;;8.43;;
13520;SDS011;6832;51.186;3.236;2022-07-23T11:08:20;11.07;;;8.13;;
13520;SDS011;6832;51.186;3.236;2022-07-23T11:10:54;11.83;;;8.47;;
13520;SDS011;6832;51.186;3.236;2022-07-23T11:13:39;13.27;;;8.07;;
13520;SDS011;6832;51.186;3.236;2022-07-23T11:16:17;12.77;;;8.50;;
13520;SDS011;6832;51.186;3.236;2022-07-23T11:21:49;8.53;;;6.73;;
13520;SDS011;6832;51.186;3.236;2022-07-23T11:24:23;10.87;;;7.57;;
13520;SDS011;6832;51.186;3.236;2022-07-23T11:26:57;10.40;;;6.87;;
13520;SDS011;6832;51.186;3.236;2022-07-23T11:29:41;9.33;;;6.90;;
13520;SDS011;6832;51.186;3.236;2022-07-23T11:32:39;9.60;;;6.80;;
13520;SDS011;6832;51.186;3.236;2022-07-23T11:35:26;8.43;;;6.80;;
13520;SDS011;6832;51.186;3.236;2022-07-23T11:38:03;10.30;;;7.60;;
13520;SDS011;6832;51.186;3.236;2022-07-23T11:40:43;13.00;;;8.17;;
13520;SDS011;6832;51.186;3.236;2022-07-23T11:43:18;15.90;;;8.87;;
13520;SDS011;6832;51.186;3.236;2022-07-23T11:46:03;11.60;;;7.57;;
13520;SDS011;6832;51.186;3.236;2022-07-23T11:48:30;10.83;;;7.63;;
13520;SDS011;6832;51.186;3.236;2022-07-23T11:50:59;14.10;;;8.07;;
13520;SDS011;6832;51.186;3.236;2022-07-23T11:53:27;11.77;;;7.07;;
13520;SDS011;6832;51.186;3.236;2022-07-23T11:56:02;12.83;;;8.60;;
13520;SDS011;6832;51.186;3.236;2022-07-23T11:58:30;11.73;;;7.63;;
13520;SDS011;6832;51.186;3.236;2022-07-23T12:01:00;10.90;;;7.67;;
13520;SDS011;6832;51.186;3.236;2022-07-23T12:03:27;10.63;;;7.53;;
13520;SDS011;6832;51.186;3.236;2022-07-23T12:05:58;9.98;;;7.57;;
13520;SDS011;6832;51.186;3.236;2022-07-23T12:08:27;13.25;;;8.25;;
13520;SDS011;6832;51.186;3.236;2022-07-23T12:10:54;16.93;;;8.73;;
13520;SDS011;6832;51.186;3.236;2022-07-23T12:13:21;11.50;;;7.43;;
13520;SDS011;6832;51.186;3.236;2022-07-23T12:15:56;12.83;;;7.97;;
13520;SDS011;6832;51.186;3.236;2022-07-23T12:18:33;11.32;;;8.10;;
13520;SDS011;6832;51.186;3.236;2022-07-23T12:21:15;10.65;;;7.25;;
13520;SDS011;6832;51.186;3.236;2022-07-23T12:23:46;10.50;;;7.47;;
13520;SDS011;6832;51.186;3.236;2022-07-23T12:26:15;9.57;;;7.28;;
13520;SDS011;6832;51.186;3.236;2022-07-23T12:28:43;10.07;;;7.18;;
13520;SDS011;6832;51.186;3.236;2022-07-23T12:31:25;8.13;;;6.32;;
13520;SDS011;6832;51.186;3.236;2022-07-23T12:33:52;13.98;;;7.80;;
13520;SDS011;6832;51.186;3.236;2022-07-23T12:36:21;8.85;;;6.45;;
13520;SDS011;6832;51.186;3.236;2022-07-23T12:39:05;12.83;;;6.47;;
13520;SDS011;6832;51.186;3.236;2022-07-23T12:44:18;14.48;;;8.02;;
13520;SDS011;6832;51.186;3.236;2022-07-23T12:46:51;10.25;;;7.50;;
13520;SDS011;6832;51.186;3.236;2022-07-23T12:49:25;10.82;;;7.55;;
13520;SDS011;6832;51.186;3.236;2022-07-23T12:51:54;9.70;;;7.23;;
13520;SDS011;6832;51.186;3.236;2022-07-23T12:54:26;10.30;;;7.20;;
13520;SDS011;6832;51.186;3.236;2022-07-23T12:56:53;12.20;;;7.82;;
13520;SDS011;6832;51.186;3.236;2022-07-23T12:59:21;9.13;;;6.90;;
13520;SDS011;6832;51.186;3.236;2022-07-23T13:01:54;8.80;;;7.10;;
13520;SDS011;6832;51.186;3.236;2022-07-23T13:04:23;9.98;;;6.78;;
13520;SDS011;6832;51.186;3.236;2022-07-23T13:06:51;10.63;;;7.07;;
13520;SDS011;6832;51.186;3.236;2022-07-23T13:09:23;8.48;;;6.53;;
13520;SDS011;6832;51.186;3.236;2022-07-23T13:11:58;14.98;;;7.45;;
13520;SDS011;6832;51.186;3.236;2022-07-23T13:14:26;10.10;;;6.82;;
13520;SDS011;6832;51.186;3.236;2022-07-23T13:16:55;10.18;;;7.18;;
13520;SDS011;6832;51.186;3.236;2022-07-23T13:19:22;9.27;;;6.78;;
13520;SDS011;6832;51.186;3.236;2022-07-23T13:21:50;12.52;;;7.63;;
13520;SDS011;6832;51.186;3.236;2022-07-23T13:24:20;8.35;;;6.25;;
13520;SDS011;6832;51.186;3.236;2022-07-23T13:26:47;12.37;;;7.97;;
13520;SDS011;6832;51.186;3.236;2022-07-23T13:29:19;11.57;;;7.10;;
13520;SDS011;6832;51.186;3.236;2022-07-23T13:31:47;12.43;;;7.88;;
13520;SDS011;6832;51.186;3.236;2022-07-23T13:34:23;11.65;;;7.63;;
13520;SDS011;6832;51.186;3.236;2022-07-23T13:36:50;10.02;;;7.05;;
13520;SDS011;6832;51.186;3.236;2022-07-23T13:39:17;10.18;;;7.32;;
13520;SDS011;6832;51.186;3.236;2022-07-23T13:41:46;9.30;;;6.63;;
13520;SDS011;6832;51.186;3.236;2022-07-23T13:44:13;8.55;;;6.15;;
13520;SDS011;6832;51.186;3.236;2022-07-23T13:46:40;12.52;;;6.07;;
13520;SDS011;6832;51.186;3.236;2022-07-23T13:51:56;10.63;;;6.55;;
13520;SDS011;6832;51.186;3.236;2022-07-23T13:54:23;13.40;;;7.95;;
13520;SDS011;6832;51.186;3.236;2022-07-23T13:56:52;12.90;;;8.80;;
13520;SDS011;6832;51.186;3.236;2022-07-23T13:59:20;15.15;;;9.60;;
13520;SDS011;6832;51.186;3.236;2022-07-23T14:01:51;14.73;;;10.13;;
13520;SDS011;6832;51.186;3.236;2022-07-23T14:04:18;13.48;;;9.57;;
13520;SDS011;6832;51.186;3.236;2022-07-23T14:06:46;12.73;;;9.10;;
13520;SDS011;6832;51.186;3.236;2022-07-23T14:09:14;11.80;;;10.00;;
13520;SDS011;6832;51.186;3.236;2022-07-23T14:11:57;15.07;;;10.40;;
13520;SDS011;6832;51.186;3.236;2022-07-23T14:14:26;11.20;;;9.38;;
13520;SDS011;6832;51.186;3.236;2022-07-23T14:16:56;17.35;;;11.40;;
13520;SDS011;6832;51.186;3.236;2022-07-23T14:19:26;14.20;;;9.23;;
13520;SDS011;6832;51.186;3.236;2022-07-23T14:21:53;13.40;;;10.77;;
13520;SDS011;6832;51.186;3.236;2022-07-23T14:24:20;18.95;;;11.20;;
13520;SDS011;6832;51.186;3.236;2022-07-23T14:26:48;12.63;;;10.32;;
13520;SDS011;6832;51.186;3.236;2022-07-23T14:29:16;12.55;;;9.40;;
13520;SDS011;6832;51.186;3.236;2022-07-23T14:31:45;12.30;;;9.85;;
13520;SDS011;6832;51.186;3.236;2022-07-23T14:34:12;13.05;;;10.23;;
13520;SDS011;6832;51.186;3.236;2022-07-23T14:36:40;11.57;;;10.02;;
13520;SDS011;6832;51.186;3.236;2022-07-23T14:39:10;14.07;;;9.88;;
13520;SDS011;6832;51.186;3.236;2022-07-23T14:41:39;12.48;;;9.77;;
13520;SDS011;6832;51.186;3.236;2022-07-23T14:44:07;13.77;;;9.40;;
13520;SDS011;6832;51.186;3.236;2022-07-23T14:49:36;11.77;;;10.43;;
13520;SDS011;6832;51.186;3.236;2022-07-23T14:52:03;11.38;;;10.07;;
13520;SDS011;6832;51.186;3.236;2022-07-23T14:54:31;13.32;;;10.88;;
13520;SDS011;6832;51.186;3.236;2022-07-23T14:56:59;11.20;;;9.05;;
13520;SDS011;6832;51.186;3.236;2022-07-23T14:59:28;13.43;;;9.95;;
13520;SDS011;6832;51.186;3.236;2022-07-23T15:01:57;12.23;;;10.45;;
13520;SDS011;6832;51.186;3.236;2022-07-23T15:04:44;11.20;;;9.32;;
13520;SDS011;6832;51.186;3.236;2022-07-23T15:07:11;14.98;;;9.32;;
13520;SDS011;6832;51.186;3.236;2022-07-23T15:09:38;13.32;;;10.05;;
13520;SDS011;6832;51.186;3.236;2022-07-23T15:12:06;12.55;;;10.30;;
13520;SDS011;6832;51.186;3.236;2022-07-23T15:14:34;13.25;;;9.48;;
13520;SDS011;6832;51.186;3.236;2022-07-23T15:17:08;12.43;;;9.73;;
13520;SDS011;6832;51.186;3.236;2022-07-23T15:19:39;13.45;;;9.85;;
13520;SDS011;6832;51.186;3.236;2022-07-23T15:22:15;17.70;;;10.63;;
13520;SDS011;6832;51.186;3.236;2022-07-23T15:24:56;11.13;;;9.18;;
13520;SDS011;6832;51.186;3.236;2022-07-23T15:27:23;16.45;;;12.18;;
13520;SDS011;6832;51.186;3.236;2022-07-23T15:29:51;15.45;;;11.70;;